sensor_id;sensor_type;location;lat;lon;timestamp;temperature;humidity
42905;DHT22;28550;51.228;4.528;2023-07-13T00:00:33;16.70;1.00
42905;DHT22;28550;51.228;4.528;2023-07-13T00:02:59;16.70;1.00
42905;DHT22;28550;51.228;4.528;2023-07-13T00:05:24;16.70;1.00
42905;DHT22;28550;51.228;4.528;2023-07-13T00:07:52;16.80;1.00
42905;DHT22;28550;51.228;4.528;2023-07-13T00:10:18;16.70;1.00
42905;DHT22;28550;51.228;4.528;2023-07-13T00:12:45;16.70;1.00
42905;DHT22;28550;51.228;4.528;2023-07-13T00:15:18;16.70;1.00
42905;DHT22;28550;51.228;4.528;2023-07-13T00:17:49;16.60;1.00
42905;DHT22;28550;51.228;4.528;2023-07-13T00:20:15;16.60;1.00
42905;DHT22;28550;51.228;4.528;2023-07-13T00:22:41;16.70;1.00
42905;DHT22;28550;51.228;4.528;2023-07-13T00:25:11;16.70;1.00
42905;DHT22;28550;51.228;4.528;2023-07-13T00:27:37;16.60;1.00
42905;DHT22;28550;51.228;4.528;2023-07-13T00:30:03;16.50;1.00
42905;DHT22;28550;51.228;4.528;2023-07-13T00:32:29;16.50;1.00
42905;DHT22;28550;51.228;4.528;2023-07-13T00:34:55;16.50;1.00
42905;DHT22;28550;51.228;4.528;2023-07-13T00:37:21;16.50;1.00
42905;DHT22;28550;51.228;4.528;2023-07-13T00:39:47;16.50;1.00
42905;DHT22;28550;51.228;4.528;2023-07-13T00:42:14;16.50;1.00
42905;DHT22;28550;51.228;4.528;2023-07-13T00:44:40;16.50;1.00
42905;DHT22;28550;51.228;4.528;2023-07-13T00:47:06;16.50;4.30
42905;DHT22;28550;51.228;4.528;2023-07-13T00:49:33;16.40;6.20
42905;DHT22;28550;51.228;4.528;2023-07-13T00:52:06;16.40;9.30
42905;DHT22;28550;51.228;4.528;2023-07-13T00:54:43;16.40;11.90
42905;DHT22;28550;51.228;4.528;2023-07-13T00:57:15;16.40;13.40
42905;DHT22;28550;51.228;4.528;2023-07-13T00:59:47;16.30;16.50
42905;DHT22;28550;51.228;4.528;2023-07-13T01:02:16;16.40;15.80
42905;DHT22;28550;51.228;4.528;2023-07-13T01:04:42;16.30;15.60
42905;DHT22;28550;51.228;4.528;2023-07-13T01:07:11;16.20;21.20
42905;DHT22;28550;51.228;4.528;2023-07-13T01:09:38;16.30;21.50
42905;DHT22;28550;51.228;4.528;2023-07-13T01:12:04;16.20;21.50
42905;DHT22;28550;51.228;4.528;2023-07-13T01:14:30;16.30;23.80
42905;DHT22;28550;51.228;4.528;2023-07-13T01:16:55;16.20;25.90
42905;DHT22;28550;51.228;4.528;2023-07-13T01:19:36;16.10;31.60
42905;DHT22;28550;51.228;4.528;2023-07-13T01:22:11;16.10;34.80
42905;DHT22;28550;51.228;4.528;2023-07-13T01:24:38;16.10;35.90
42905;DHT22;28550;51.228;4.528;2023-07-13T01:27:06;16.10;34.10
42905;DHT22;28550;51.228;4.528;2023-07-13T01:29:33;16.10;34.00
42905;DHT22;28550;51.228;4.528;2023-07-13T01:32:00;16.10;35.60
42905;DHT22;28550;51.228;4.528;2023-07-13T01:34:27;16.20;31.60
42905;DHT22;28550;51.228;4.528;2023-07-13T01:36:53;16.10;37.50
42905;DHT22;28550;51.228;4.528;2023-07-13T01:39:21;16.00;41.10
42905;DHT22;28550;51.228;4.528;2023-07-13T01:41:47;16.10;41.10
42905;DHT22;28550;51.228;4.528;2023-07-13T01:44:13;16.00;39.20
42905;DHT22;28550;51.228;4.528;2023-07-13T01:46:39;16.10;39.70
42905;DHT22;28550;51.228;4.528;2023-07-13T01:49:05;16.20;37.90
42905;DHT22;28550;51.228;4.528;2023-07-13T01:51:30;16.10;43.00
42905;DHT22;28550;51.228;4.528;2023-07-13T01:53:56;16.10;42.50
42905;DHT22;28550;51.228;4.528;2023-07-13T01:56:22;16.20;39.10
42905;DHT22;28550;51.228;4.528;2023-07-13T01:58:48;16.30;40.10
42905;DHT22;28550;51.228;4.528;2023-07-13T02:01:15;16.30;42.90
42905;DHT22;28550;51.228;4.528;2023-07-13T02:03:40;16.40;38.20
42905;DHT22;28550;51.228;4.528;2023-07-13T02:06:06;16.40;34.90
42905;DHT22;28550;51.228;4.528;2023-07-13T02:08:35;16.50;34.60
42905;DHT22;28550;51.228;4.528;2023-07-13T02:11:02;16.50;32.60
42905;DHT22;28550;51.228;4.528;2023-07-13T02:13:28;16.40;37.20
42905;DHT22;28550;51.228;4.528;2023-07-13T02:15:55;16.30;39.60
42905;DHT22;28550;51.228;4.528;2023-07-13T02:18:21;16.30;43.10
42905;DHT22;28550;51.228;4.528;2023-07-13T02:20:46;16.30;44.40
42905;DHT22;28550;51.228;4.528;2023-07-13T02:23:12;16.20;44.20
42905;DHT22;28550;51.228;4.528;2023-07-13T02:25:38;16.10;48.10
42905;DHT22;28550;51.228;4.528;2023-07-13T02:28:04;16.10;50.50
42905;DHT22;28550;51.228;4.528;2023-07-13T02:30:30;15.90;55.00
42905;DHT22;28550;51.228;4.528;2023-07-13T02:32:56;15.90;59.40
42905;DHT22;28550;51.228;4.528;2023-07-13T02:35:22;16.00;57.10
42905;DHT22;28550;51.228;4.528;2023-07-13T02:37:50;15.90;57.10
42905;DHT22;28550;51.228;4.528;2023-07-13T02:40:16;15.90;57.00
42905;DHT22;28550;51.228;4.528;2023-07-13T02:42:42;15.90;57.90
42905;DHT22;28550;51.228;4.528;2023-07-13T02:45:08;15.80;61.40
42905;DHT22;28550;51.228;4.528;2023-07-13T02:47:35;15.80;66.40
42905;DHT22;28550;51.228;4.528;2023-07-13T02:50:01;15.80;67.40
42905;DHT22;28550;51.228;4.528;2023-07-13T02:52:27;15.90;63.10
42905;DHT22;28550;51.228;4.528;2023-07-13T02:54:55;16.10;58.40
42905;DHT22;28550;51.228;4.528;2023-07-13T02:57:20;16.00;59.20
42905;DHT22;28550;51.228;4.528;2023-07-13T02:59:46;16.10;59.10
42905;DHT22;28550;51.228;4.528;2023-07-13T03:02:12;16.20;57.90
42905;DHT22;28550;51.228;4.528;2023-07-13T03:04:38;16.20;55.70
42905;DHT22;28550;51.228;4.528;2023-07-13T03:07:07;16.30;51.80
42905;DHT22;28550;51.228;4.528;2023-07-13T03:09:34;16.40;44.90
42905;DHT22;28550;51.228;4.528;2023-07-13T03:12:00;16.40;45.50
42905;DHT22;28550;51.228;4.528;2023-07-13T03:14:26;16.30;49.50
42905;DHT22;28550;51.228;4.528;2023-07-13T03:16:51;16.40;46.70
42905;DHT22;28550;51.228;4.528;2023-07-13T03:19:17;16.40;48.40
42905;DHT22;28550;51.228;4.528;2023-07-13T03:21:43;16.40;43.60
42905;DHT22;28550;51.228;4.528;2023-07-13T03:24:09;16.50;41.70
42905;DHT22;28550;51.228;4.528;2023-07-13T03:26:35;16.40;44.00
42905;DHT22;28550;51.228;4.528;2023-07-13T03:29:01;16.40;45.90
42905;DHT22;28550;51.228;4.528;2023-07-13T03:31:28;16.50;41.10
42905;DHT22;28550;51.228;4.528;2023-07-13T03:33:56;16.40;46.50
42905;DHT22;28550;51.228;4.528;2023-07-13T03:36:26;16.40;48.70
42905;DHT22;28550;51.228;4.528;2023-07-13T03:38:56;16.40;51.20
42905;DHT22;28550;51.228;4.528;2023-07-13T03:41:23;16.50;49.70
42905;DHT22;28550;51.228;4.528;2023-07-13T03:43:49;16.50;48.60
42905;DHT22;28550;51.228;4.528;2023-07-13T03:46:16;16.60;45.60
42905;DHT22;28550;51.228;4.528;2023-07-13T03:48:44;16.50;46.40
42905;DHT22;28550;51.228;4.528;2023-07-13T03:51:11;16.50;50.60
42905;DHT22;28550;51.228;4.528;2023-07-13T03:53:42;16.40;53.70
42905;DHT22;28550;51.228;4.528;2023-07-13T03:56:08;16.50;52.20
42905;DHT22;28550;51.228;4.528;2023-07-13T03:58:36;16.50;52.70
42905;DHT22;28550;51.228;4.528;2023-07-13T04:01:04;16.50;53.80
42905;DHT22;28550;51.228;4.528;2023-07-13T04:03:31;16.60;51.60
42905;DHT22;28550;51.228;4.528;2023-07-13T04:06:02;16.60;50.70
42905;DHT22;28550;51.228;4.528;2023-07-13T04:08:29;16.60;49.90
42905;DHT22;28550;51.228;4.528;2023-07-13T04:10:55;16.70;50.40
42905;DHT22;28550;51.228;4.528;2023-07-13T04:13:22;16.70;48.20
42905;DHT22;28550;51.228;4.528;2023-07-13T04:15:48;16.70;49.00
42905;DHT22;28550;51.228;4.528;2023-07-13T04:18:14;16.70;45.60
42905;DHT22;28550;51.228;4.528;2023-07-13T04:20:39;16.80;43.30
42905;DHT22;28550;51.228;4.528;2023-07-13T04:23:05;16.70;48.30
42905;DHT22;28550;51.228;4.528;2023-07-13T04:25:31;16.80;46.60
42905;DHT22;28550;51.228;4.528;2023-07-13T04:27:57;16.70;48.70
42905;DHT22;28550;51.228;4.528;2023-07-13T04:30:22;16.70;48.70
42905;DHT22;28550;51.228;4.528;2023-07-13T04:32:51;16.60;52.50
42905;DHT22;28550;51.228;4.528;2023-07-13T04:35:20;16.60;57.10
42905;DHT22;28550;51.228;4.528;2023-07-13T04:37:48;16.70;52.90
42905;DHT22;28550;51.228;4.528;2023-07-13T04:40:19;16.80;49.10
42905;DHT22;28550;51.228;4.528;2023-07-13T04:42:45;16.80;51.50
42905;DHT22;28550;51.228;4.528;2023-07-13T04:45:13;16.80;51.20
42905;DHT22;28550;51.228;4.528;2023-07-13T04:47:39;16.80;52.90
42905;DHT22;28550;51.228;4.528;2023-07-13T04:50:08;16.80;52.20
42905;DHT22;28550;51.228;4.528;2023-07-13T04:52:35;16.90;44.00
42905;DHT22;28550;51.228;4.528;2023-07-13T04:55:01;17.00;39.00
42905;DHT22;28550;51.228;4.528;2023-07-13T04:57:29;17.10;33.20
42905;DHT22;28550;51.228;4.528;2023-07-13T04:59:57;17.10;33.60
42905;DHT22;28550;51.228;4.528;2023-07-13T05:02:26;17.20;32.20
42905;DHT22;28550;51.228;4.528;2023-07-13T05:04:53;17.20;32.20
42905;DHT22;28550;51.228;4.528;2023-07-13T05:07:19;17.20;28.30
42905;DHT22;28550;51.228;4.528;2023-07-13T05:09:46;17.30;25.50
42905;DHT22;28550;51.228;4.528;2023-07-13T05:12:14;17.40;23.20
42905;DHT22;28550;51.228;4.528;2023-07-13T05:14:40;17.40;26.20
42905;DHT22;28550;51.228;4.528;2023-07-13T05:17:06;17.40;22.90
42905;DHT22;28550;51.228;4.528;2023-07-13T05:19:32;17.40;22.30
42905;DHT22;28550;51.228;4.528;2023-07-13T05:22:00;17.50;21.70
42905;DHT22;28550;51.228;4.528;2023-07-13T05:24:26;17.60;23.60
42905;DHT22;28550;51.228;4.528;2023-07-13T05:26:52;17.40;24.30
42905;DHT22;28550;51.228;4.528;2023-07-13T05:29:19;17.60;20.50
42905;DHT22;28550;51.228;4.528;2023-07-13T05:31:47;17.60;28.00
42905;DHT22;28550;51.228;4.528;2023-07-13T05:34:13;17.60;21.50
42905;DHT22;28550;51.228;4.528;2023-07-13T05:36:40;17.80;16.20
42905;DHT22;28550;51.228;4.528;2023-07-13T05:39:06;17.70;17.30
42905;DHT22;28550;51.228;4.528;2023-07-13T05:41:32;17.50;23.80
42905;DHT22;28550;51.228;4.528;2023-07-13T05:43:57;17.60;24.20
42905;DHT22;28550;51.228;4.528;2023-07-13T05:46:23;17.50;29.10
42905;DHT22;28550;51.228;4.528;2023-07-13T05:48:49;17.60;27.60
42905;DHT22;28550;51.228;4.528;2023-07-13T05:51:15;17.70;22.50
42905;DHT22;28550;51.228;4.528;2023-07-13T05:53:41;17.70;18.80
42905;DHT22;28550;51.228;4.528;2023-07-13T05:56:06;17.70;23.50
42905;DHT22;28550;51.228;4.528;2023-07-13T05:58:32;17.70;18.40
42905;DHT22;28550;51.228;4.528;2023-07-13T06:01:05;17.80;18.80
42905;DHT22;28550;51.228;4.528;2023-07-13T06:03:32;17.90;13.00
42905;DHT22;28550;51.228;4.528;2023-07-13T06:06:05;18.00;9.60
42905;DHT22;28550;51.228;4.528;2023-07-13T06:08:31;17.90;12.40
42905;DHT22;28550;51.228;4.528;2023-07-13T06:11:18;17.90;16.00
42905;DHT22;28550;51.228;4.528;2023-07-13T06:13:53;18.00;11.50
42905;DHT22;28550;51.228;4.528;2023-07-13T06:16:20;18.10;10.40
42905;DHT22;28550;51.228;4.528;2023-07-13T06:18:46;18.10;7.50
42905;DHT22;28550;51.228;4.528;2023-07-13T06:21:16;18.10;4.00
42905;DHT22;28550;51.228;4.528;2023-07-13T06:23:43;18.10;4.90
42905;DHT22;28550;51.228;4.528;2023-07-13T06:26:09;18.20;4.30
42905;DHT22;28550;51.228;4.528;2023-07-13T06:28:37;18.20;3.50
42905;DHT22;28550;51.228;4.528;2023-07-13T06:31:06;18.10;7.60
42905;DHT22;28550;51.228;4.528;2023-07-13T06:33:32;18.10;9.40
42905;DHT22;28550;51.228;4.528;2023-07-13T06:35:58;18.30;2.00
42905;DHT22;28550;51.228;4.528;2023-07-13T06:38:24;18.50;1.00
42905;DHT22;28550;51.228;4.528;2023-07-13T06:41:00;18.50;1.00
42905;DHT22;28550;51.228;4.528;2023-07-13T06:43:28;18.80;1.00
42905;DHT22;28550;51.228;4.528;2023-07-13T06:46:00;19.00;1.00
42905;DHT22;28550;51.228;4.528;2023-07-13T06:48:33;19.20;1.00
42905;DHT22;28550;51.228;4.528;2023-07-13T06:51:04;19.40;1.00
42905;DHT22;28550;51.228;4.528;2023-07-13T06:53:37;19.70;1.00
42905;DHT22;28550;51.228;4.528;2023-07-13T06:56:22;19.90;1.00
42905;DHT22;28550;51.228;4.528;2023-07-13T06:59:26;20.10;1.00
42905;DHT22;28550;51.228;4.528;2023-07-13T07:05:01;20.30;1.00
42905;DHT22;28550;51.228;4.528;2023-07-13T07:07:27;20.30;1.00
42905;DHT22;28550;51.228;4.528;2023-07-13T07:09:58;20.60;1.00
42905;DHT22;28550;51.228;4.528;2023-07-13T07:12:26;20.70;1.00
42905;DHT22;28550;51.228;4.528;2023-07-13T07:14:53;20.60;1.00
42905;DHT22;28550;51.228;4.528;2023-07-13T07:17:19;20.60;99.90
42905;DHT22;28550;51.228;4.528;2023-07-13T07:19:46;20.70;99.90
42905;DHT22;28550;51.228;4.528;2023-07-13T07:22:16;20.50;1.00
42905;DHT22;28550;51.228;4.528;2023-07-13T07:24:43;20.50;1.00
42905;DHT22;28550;51.228;4.528;2023-07-13T07:27:09;20.70;1.00
42905;DHT22;28550;51.228;4.528;2023-07-13T07:29:38;20.80;1.00
42905;DHT22;28550;51.228;4.528;2023-07-13T07:32:05;21.10;99.90
42905;DHT22;28550;51.228;4.528;2023-07-13T07:34:33;21.20;99.90
42905;DHT22;28550;51.228;4.528;2023-07-13T07:37:04;21.30;99.90
42905;DHT22;28550;51.228;4.528;2023-07-13T07:39:32;21.40;99.90
42905;DHT22;28550;51.228;4.528;2023-07-13T07:42:00;21.40;74.80
42905;DHT22;28550;51.228;4.528;2023-07-13T07:44:27;21.20;99.90
42905;DHT22;28550;51.228;4.528;2023-07-13T07:46:58;21.30;99.90
42905;DHT22;28550;51.228;4.528;2023-07-13T07:49:26;21.40;1.00
42905;DHT22;28550;51.228;4.528;2023-07-13T07:51:52;21.40;90.30
42905;DHT22;28550;51.228;4.528;2023-07-13T07:54:23;21.40;99.90
42905;DHT22;28550;51.228;4.528;2023-07-13T07:57:08;21.60;99.90
42905;DHT22;28550;51.228;4.528;2023-07-13T07:59:52;21.50;36.30
42905;DHT22;28550;51.228;4.528;2023-07-13T08:02:45;21.60;1.00
42905;DHT22;28550;51.228;4.528;2023-07-13T08:15:22;21.50;85.60
42905;DHT22;28550;51.228;4.528;2023-07-13T08:18:00;21.30;19.10
42905;DHT22;28550;51.228;4.528;2023-07-13T08:20:49;21.40;99.90
42905;DHT22;28550;51.228;4.528;2023-07-13T08:23:31;22.80;1.00
42905;DHT22;28550;51.228;4.528;2023-07-13T08:26:17;23.20;1.00
42905;DHT22;28550;51.228;4.528;2023-07-13T08:28:47;22.90;1.00
42905;DHT22;28550;51.228;4.528;2023-07-13T08:31:13;22.80;1.00
42905;DHT22;28550;51.228;4.528;2023-07-13T08:33:47;22.90;99.90
42905;DHT22;28550;51.228;4.528;2023-07-13T08:36:18;23.90;99.90
42905;DHT22;28550;51.228;4.528;2023-07-13T08:38:51;24.30;99.90
42905;DHT22;28550;51.228;4.528;2023-07-13T08:41:20;24.50;9.90
42905;DHT22;28550;51.228;4.528;2023-07-13T08:43:49;24.40;99.90
42905;DHT22;28550;51.228;4.528;2023-07-13T08:46:34;24.00;1.00
42905;DHT22;28550;51.228;4.528;2023-07-13T08:49:12;23.50;99.90
42905;DHT22;28550;51.228;4.528;2023-07-13T08:51:47;23.20;1.00
42905;DHT22;28550;51.228;4.528;2023-07-13T08:54:40;23.90;99.90
42905;DHT22;28550;51.228;4.528;2023-07-13T08:57:37;24.50;60.30
42905;DHT22;28550;51.228;4.528;2023-07-13T09:00:19;24.20;99.90
42905;DHT22;28550;51.228;4.528;2023-07-13T09:02:57;24.70;99.90
42905;DHT22;28550;51.228;4.528;2023-07-13T09:05:40;25.30;1.00
42905;DHT22;28550;51.228;4.528;2023-07-13T09:14:45;27.10;99.90
42905;DHT22;28550;51.228;4.528;2023-07-13T09:17:40;27.50;99.90
42905;DHT22;28550;51.228;4.528;2023-07-13T09:20:25;27.20;99.90
42905;DHT22;28550;51.228;4.528;2023-07-13T09:22:53;26.50;99.90
42905;DHT22;28550;51.228;4.528;2023-07-13T09:25:39;26.80;1.00
42905;DHT22;28550;51.228;4.528;2023-07-13T09:28:26;27.10;99.90
42905;DHT22;28550;51.228;4.528;2023-07-13T09:31:06;27.50;99.90
42905;DHT22;28550;51.228;4.528;2023-07-13T09:33:44;27.80;99.90
42905;DHT22;28550;51.228;4.528;2023-07-13T09:36:23;27.50;99.90
42905;DHT22;28550;51.228;4.528;2023-07-13T09:39:10;26.30;99.90
42905;DHT22;28550;51.228;4.528;2023-07-13T09:45:09;23.80;99.90
42905;DHT22;28550;51.228;4.528;2023-07-13T09:47:42;22.50;99.90
42905;DHT22;28550;51.228;4.528;2023-07-13T09:54:01;21.70;99.90
42905;DHT22;28550;51.228;4.528;2023-07-13T09:59:45;21.40;99.90
42905;DHT22;28550;51.228;4.528;2023-07-13T10:02:38;21.30;99.90
42905;DHT22;28550;51.228;4.528;2023-07-13T10:05:17;21.10;1.00
42905;DHT22;28550;51.228;4.528;2023-07-13T10:07:48;21.10;53.70
42905;DHT22;28550;51.228;4.528;2023-07-13T10:10:28;21.30;99.90
42905;DHT22;28550;51.228;4.528;2023-07-13T10:23:35;21.50;99.90
42905;DHT22;28550;51.228;4.528;2023-07-13T10:26:17;21.50;99.90
42905;DHT22;28550;51.228;4.528;2023-07-13T10:54:32;32.10;55.10
42905;DHT22;28550;51.228;4.528;2023-07-13T11:00:49;29.90;31.10
42905;DHT22;28550;51.228;4.528;2023-07-13T11:03:50;29.20;62.20
42905;DHT22;28550;51.228;4.528;2023-07-13T11:12:27;29.30;57.40
42905;DHT22;28550;51.228;4.528;2023-07-13T11:20:49;27.00;99.90
42905;DHT22;28550;51.228;4.528;2023-07-13T11:23:20;26.40;99.90
42905;DHT22;28550;51.228;4.528;2023-07-13T11:45:52;22.40;99.90
42905;DHT22;28550;51.228;4.528;2023-07-13T11:48:40;20.60;1.00
42905;DHT22;28550;51.228;4.528;2023-07-13T11:52:05;19.60;1.00
42905;DHT22;28550;51.228;4.528;2023-07-13T11:57:45;18.70;57.90
42905;DHT22;28550;51.228;4.528;2023-07-13T12:00:22;18.70;61.80
42905;DHT22;28550;51.228;4.528;2023-07-13T12:06:42;18.50;78.70
42905;DHT22;28550;51.228;4.528;2023-07-13T12:09:28;18.50;69.30
42905;DHT22;28550;51.228;4.528;2023-07-13T12:12:18;18.60;59.70
42905;DHT22;28550;51.228;4.528;2023-07-13T12:14:54;18.60;52.60
42905;DHT22;28550;51.228;4.528;2023-07-13T12:17:23;18.70;67.90
42905;DHT22;28550;51.228;4.528;2023-07-13T12:26:04;19.00;61.90
42905;DHT22;28550;51.228;4.528;2023-07-13T12:31:45;19.20;55.30
42905;DHT22;28550;51.228;4.528;2023-07-13T12:34:24;19.70;47.70
42905;DHT22;28550;51.228;4.528;2023-07-13T12:37:10;19.90;41.90
42905;DHT22;28550;51.228;4.528;2023-07-13T12:40:21;20.10;24.40
42905;DHT22;28550;51.228;4.528;2023-07-13T12:43:17;20.30;1.00
42905;DHT22;28550;51.228;4.528;2023-07-13T12:49:13;20.30;1.20
42905;DHT22;28550;51.228;4.528;2023-07-13T12:52:04;20.30;3.20
42905;DHT22;28550;51.228;4.528;2023-07-13T12:58:39;20.30;4.20
42905;DHT22;28550;51.228;4.528;2023-07-13T13:01:27;20.70;3.90
42905;DHT22;28550;51.228;4.528;2023-07-13T13:07:27;20.80;1.00
42905;DHT22;28550;51.228;4.528;2023-07-13T13:10:01;21.10;1.00
42905;DHT22;28550;51.228;4.528;2023-07-13T13:13:01;21.10;1.00
42905;DHT22;28550;51.228;4.528;2023-07-13T13:26:46;22.70;99.90
42905;DHT22;28550;51.228;4.528;2023-07-13T13:29:43;23.00;1.00
42905;DHT22;28550;51.228;4.528;2023-07-13T13:32:55;24.20;9.10
42905;DHT22;28550;51.228;4.528;2023-07-13T13:35:56;25.60;99.90
42905;DHT22;28550;51.228;4.528;2023-07-13T13:52:08;26.80;99.90
42905;DHT22;28550;51.228;4.528;2023-07-13T13:54:55;26.90;1.00
42905;DHT22;28550;51.228;4.528;2023-07-13T13:57:24;27.30;1.00
42905;DHT22;28550;51.228;4.528;2023-07-13T14:00:05;27.40;1.00
42905;DHT22;28550;51.228;4.528;2023-07-13T14:02:32;27.50;1.00
42905;DHT22;28550;51.228;4.528;2023-07-13T14:07:54;28.10;1.00
42905;DHT22;28550;51.228;4.528;2023-07-13T14:10:28;28.90;99.90
42905;DHT22;28550;51.228;4.528;2023-07-13T14:13:40;28.40;99.90
42905;DHT22;28550;51.228;4.528;2023-07-13T14:16:39;27.50;99.90
42905;DHT22;28550;51.228;4.528;2023-07-13T14:19:23;27.60;1.00
42905;DHT22;28550;51.228;4.528;2023-07-13T14:21:49;27.80;99.90
42905;DHT22;28550;51.228;4.528;2023-07-13T14:24:26;27.60;99.90
42905;DHT22;28550;51.228;4.528;2023-07-13T14:30:20;26.80;1.00
42905;DHT22;28550;51.228;4.528;2023-07-13T14:32:52;26.10;99.90
42905;DHT22;28550;51.228;4.528;2023-07-13T14:35:23;25.80;1.00
42905;DHT22;28550;51.228;4.528;2023-07-13T14:37:55;25.60;7.70
42905;DHT22;28550;51.228;4.528;2023-07-13T14:40:33;25.70;19.40
42905;DHT22;28550;51.228;4.528;2023-07-13T14:43:01;25.50;13.30
42905;DHT22;28550;51.228;4.528;2023-07-13T14:45:30;25.70;73.80
42905;DHT22;28550;51.228;4.528;2023-07-13T14:51:02;26.30;99.90
42905;DHT22;28550;51.228;4.528;2023-07-13T14:56:18;26.60;19.30
42905;DHT22;28550;51.228;4.528;2023-07-13T15:02:36;27.50;1.00
42905;DHT22;28550;51.228;4.528;2023-07-13T15:05:15;28.00;99.90
42905;DHT22;28550;51.228;4.528;2023-07-13T15:07:44;28.30;99.90
42905;DHT22;28550;51.228;4.528;2023-07-13T15:10:19;27.30;99.90
42905;DHT22;28550;51.228;4.528;2023-07-13T15:12:48;26.80;1.00
42905;DHT22;28550;51.228;4.528;2023-07-13T15:15:18;26.50;1.00
42905;DHT22;28550;51.228;4.528;2023-07-13T15:17:51;26.50;1.00
42905;DHT22;28550;51.228;4.528;2023-07-13T15:20:32;26.20;1.00
42905;DHT22;28550;51.228;4.528;2023-07-13T15:26:18;25.90;99.90
42905;DHT22;28550;51.228;4.528;2023-07-13T15:29:07;25.50;1.00
42905;DHT22;28550;51.228;4.528;2023-07-13T15:31:53;25.40;99.90
42905;DHT22;28550;51.228;4.528;2023-07-13T15:34:24;25.20;99.90
42905;DHT22;28550;51.228;4.528;2023-07-13T15:37:22;24.70;99.90
42905;DHT22;28550;51.228;4.528;2023-07-13T15:40:05;24.30;57.60
42905;DHT22;28550;51.228;4.528;2023-07-13T15:42:34;23.80;99.90
42905;DHT22;28550;51.228;4.528;2023-07-13T15:45:26;23.90;99.90
42905;DHT22;28550;51.228;4.528;2023-07-13T15:47:52;24.00;99.90
42905;DHT22;28550;51.228;4.528;2023-07-13T15:50:22;23.90;99.90
42905;DHT22;28550;51.228;4.528;2023-07-13T15:52:52;24.60;1.00
42905;DHT22;28550;51.228;4.528;2023-07-13T15:55:18;25.20;1.00
42905;DHT22;28550;51.228;4.528;2023-07-13T15:57:48;25.60;99.90
42905;DHT22;28550;51.228;4.528;2023-07-13T16:00:32;25.70;99.90
42905;DHT22;28550;51.228;4.528;2023-07-13T16:02:58;25.10;1.00
42905;DHT22;28550;51.228;4.528;2023-07-13T16:05:49;24.80;99.90
42905;DHT22;28550;51.228;4.528;2023-07-13T16:08:33;24.80;39.20
42905;DHT22;28550;51.228;4.528;2023-07-13T16:11:12;25.10;99.90
42905;DHT22;28550;51.228;4.528;2023-07-13T16:14:18;24.90;99.90
42905;DHT22;28550;51.228;4.528;2023-07-13T16:16:45;24.70;1.00
42905;DHT22;28550;51.228;4.528;2023-07-13T16:19:20;24.50;99.90
42905;DHT22;28550;51.228;4.528;2023-07-13T16:21:56;24.40;1.00
42905;DHT22;28550;51.228;4.528;2023-07-13T16:24:26;24.30;99.90
42905;DHT22;28550;51.228;4.528;2023-07-13T16:27:06;24.00;99.90
42905;DHT22;28550;51.228;4.528;2023-07-13T16:29:32;24.20;1.00
42905;DHT22;28550;51.228;4.528;2023-07-13T16:32:14;25.10;1.00
42905;DHT22;28550;51.228;4.528;2023-07-13T16:34:43;25.30;1.00
42905;DHT22;28550;51.228;4.528;2023-07-13T16:37:22;25.80;1.00
42905;DHT22;28550;51.228;4.528;2023-07-13T16:39:54;26.20;1.00
42905;DHT22;28550;51.228;4.528;2023-07-13T16:43:01;26.20;1.00
42905;DHT22;28550;51.228;4.528;2023-07-13T16:45:32;25.90;96.50
42905;DHT22;28550;51.228;4.528;2023-07-13T16:48:14;25.40;1.00
42905;DHT22;28550;51.228;4.528;2023-07-13T16:51:09;25.20;1.00
42905;DHT22;28550;51.228;4.528;2023-07-13T16:53:34;25.20;76.60
42905;DHT22;28550;51.228;4.528;2023-07-13T16:56:02;25.40;1.00
42905;DHT22;28550;51.228;4.528;2023-07-13T16:58:45;25.10;1.00
42905;DHT22;28550;51.228;4.528;2023-07-13T17:01:31;25.20;99.90
42905;DHT22;28550;51.228;4.528;2023-07-13T17:04:07;25.90;33.30
42905;DHT22;28550;51.228;4.528;2023-07-13T17:07:23;26.10;99.90
42905;DHT22;28550;51.228;4.528;2023-07-13T17:09:49;26.30;99.90
42905;DHT22;28550;51.228;4.528;2023-07-13T17:16:00;25.90;99.90
42905;DHT22;28550;51.228;4.528;2023-07-13T17:18:55;25.80;1.00
42905;DHT22;28550;51.228;4.528;2023-07-13T17:21:24;25.70;1.00
42905;DHT22;28550;51.228;4.528;2023-07-13T17:23:49;25.70;99.90
42905;DHT22;28550;51.228;4.528;2023-07-13T17:26:27;25.40;99.90
42905;DHT22;28550;51.228;4.528;2023-07-13T17:31:42;24.90;99.90
42905;DHT22;28550;51.228;4.528;2023-07-13T17:34:30;24.80;99.90
42905;DHT22;28550;51.228;4.528;2023-07-13T17:37:14;25.00;99.90
42905;DHT22;28550;51.228;4.528;2023-07-13T17:40:13;24.50;99.90
42905;DHT22;28550;51.228;4.528;2023-07-13T17:42:46;24.40;99.90
42905;DHT22;28550;51.228;4.528;2023-07-13T17:45:13;24.30;99.90
42905;DHT22;28550;51.228;4.528;2023-07-13T17:47:44;24.30;99.90
42905;DHT22;28550;51.228;4.528;2023-07-13T17:50:14;24.20;1.00
42905;DHT22;28550;51.228;4.528;2023-07-13T17:52:48;24.20;99.90
42905;DHT22;28550;51.228;4.528;2023-07-13T17:55:25;24.10;99.90
42905;DHT22;28550;51.228;4.528;2023-07-13T17:57:53;23.70;99.90
42905;DHT22;28550;51.228;4.528;2023-07-13T18:00:20;23.80;1.00
42905;DHT22;28550;51.228;4.528;2023-07-13T18:03:35;23.90;99.90
42905;DHT22;28550;51.228;4.528;2023-07-13T18:06:32;23.40;99.90
42905;DHT22;28550;51.228;4.528;2023-07-13T18:40:49;21.80;1.00
42905;DHT22;28550;51.228;4.528;2023-07-13T19:10:56;21.10;1.00
42905;DHT22;28550;51.228;4.528;2023-07-13T19:23:39;20.80;1.00
42905;DHT22;28550;51.228;4.528;2023-07-13T19:26:43;20.80;1.00
42905;DHT22;28550;51.228;4.528;2023-07-13T19:36:21;20.60;1.00
42905;DHT22;28550;51.228;4.528;2023-07-13T19:39:18;20.70;1.00
42905;DHT22;28550;51.228;4.528;2023-07-13T19:42:25;20.60;1.00
42905;DHT22;28550;51.228;4.528;2023-07-13T19:44:59;20.80;1.00
42905;DHT22;28550;51.228;4.528;2023-07-13T19:50:48;20.50;1.00
42905;DHT22;28550;51.228;4.528;2023-07-13T19:53:35;20.40;1.00
42905;DHT22;28550;51.228;4.528;2023-07-13T19:56:33;20.20;1.00
42905;DHT22;28550;51.228;4.528;2023-07-13T19:59:22;19.90;5.40
42905;DHT22;28550;51.228;4.528;2023-07-13T20:02:22;19.80;11.70
42905;DHT22;28550;51.228;4.528;2023-07-13T20:04:49;19.70;17.70
42905;DHT22;28550;51.228;4.528;2023-07-13T20:07:22;19.60;21.50
42905;DHT22;28550;51.228;4.528;2023-07-13T20:18:39;19.50;40.80
42905;DHT22;28550;51.228;4.528;2023-07-13T20:21:15;19.50;40.80
42905;DHT22;28550;51.228;4.528;2023-07-13T20:23:46;19.40;43.80
42905;DHT22;28550;51.228;4.528;2023-07-13T20:26:55;19.40;46.20
42905;DHT22;28550;51.228;4.528;2023-07-13T20:29:37;19.30;46.60
42905;DHT22;28550;51.228;4.528;2023-07-13T20:33:01;19.30;43.40
42905;DHT22;28550;51.228;4.528;2023-07-13T20:35:34;19.20;47.00
42905;DHT22;28550;51.228;4.528;2023-07-13T20:38:18;19.20;46.20
42905;DHT22;28550;51.228;4.528;2023-07-13T20:41:09;19.20;47.20
42905;DHT22;28550;51.228;4.528;2023-07-13T20:43:46;19.20;50.00